createdAt,value
2017-07-09T00:01:10.441Z,6.33
2017-07-09T00:03:37.942Z,6.87
2017-07-09T00:06:05.427Z,5.67
2017-07-09T00:08:32.911Z,6.00
2017-07-09T00:11:00.391Z,5.60
2017-07-09T00:13:28.649Z,6.60
2017-07-09T00:15:56.129Z,5.37
2017-07-09T00:18:24.401Z,5.70
2017-07-09T00:20:52.660Z,6.40
2017-07-09T00:23:20.139Z,5.10
2017-07-09T00:25:47.641Z,5.33
2017-07-09T00:28:15.154Z,6.00
2017-07-09T00:30:42.648Z,4.97
2017-07-09T00:33:10.157Z,7.13
2017-07-09T00:35:38.432Z,5.93
2017-07-09T00:38:06.685Z,5.67
2017-07-09T00:40:34.183Z,5.50
2017-07-09T00:43:01.667Z,5.60
2017-07-09T00:45:29.178Z,5.63
2017-07-09T00:47:57.463Z,5.90
2017-07-09T00:50:24.956Z,5.13
2017-07-09T00:52:52.449Z,5.23
2017-07-09T00:55:20.029Z,4.90
2017-07-09T00:57:48.302Z,5.70
2017-07-09T01:00:16.584Z,5.33
2017-07-09T01:02:44.960Z,5.47
2017-07-09T01:05:13.253Z,5.60
2017-07-09T01:07:40.749Z,6.00
2017-07-09T01:10:08.250Z,5.77
2017-07-09T01:12:35.753Z,6.00
2017-07-09T01:15:03.263Z,5.03
2017-07-09T01:17:31.540Z,6.00
2017-07-09T01:19:59.788Z,6.10
2017-07-09T01:22:27.299Z,6.70
2017-07-09T01:24:54.831Z,6.20
2017-07-09T01:27:23.083Z,6.07
2017-07-09T01:29:50.655Z,7.30
2017-07-09T01:32:18.915Z,6.17
2017-07-09T01:34:46.505Z,5.60
2017-07-09T01:37:13.989Z,6.10
2017-07-09T01:39:41.490Z,5.47
2017-07-09T01:42:08.981Z,6.40
2017-07-09T01:44:36.492Z,6.80
2017-07-09T01:47:03.980Z,7.23
2017-07-09T01:49:32.252Z,6.27
2017-07-09T01:51:59.761Z,5.30
2017-07-09T01:54:27.220Z,6.43
2017-07-09T01:56:54.678Z,6.27
2017-07-09T01:59:22.125Z,6.70
2017-07-09T02:01:49.579Z,7.00
2017-07-09T02:04:17.054Z,5.80
2017-07-09T02:06:44.515Z,6.20
2017-07-09T02:09:11.967Z,6.13
2017-07-09T02:11:39.446Z,6.23
2017-07-09T02:14:06.902Z,5.30
2017-07-09T02:16:35.122Z,6.43
2017-07-09T02:19:02.623Z,5.60
2017-07-09T02:21:30.071Z,5.47
2017-07-09T02:23:57.525Z,5.90
2017-07-09T02:26:24.982Z,4.70
2017-07-09T02:28:52.447Z,5.07
2017-07-09T02:31:19.894Z,5.20
2017-07-09T02:33:47.355Z,5.77
2017-07-09T02:36:14.811Z,4.90
2017-07-09T02:38:42.275Z,4.50
2017-07-09T02:41:10.742Z,4.53
2017-07-09T02:43:38.198Z,4.80
2017-07-09T02:46:05.672Z,4.73
2017-07-09T02:48:33.213Z,5.07
2017-07-09T02:51:00.687Z,5.67
2017-07-09T02:53:28.140Z,5.47
2017-07-09T02:55:56.407Z,5.10
2017-07-09T02:58:23.859Z,4.87
2017-07-09T03:00:51.415Z,4.60
2017-07-09T03:03:18.870Z,4.40
2017-07-09T03:05:46.327Z,4.90
2017-07-09T03:08:13.778Z,4.93
2017-07-09T03:10:41.337Z,5.00
2017-07-09T03:13:08.895Z,4.00
2017-07-09T03:15:36.339Z,4.10
2017-07-09T03:18:03.797Z,4.60
2017-07-09T03:20:31.255Z,3.70
2017-07-09T03:22:58.710Z,4.17
2017-07-09T03:25:26.174Z,4.43
2017-07-09T03:27:53.631Z,4.37
2017-07-09T03:30:21.081Z,3.80
2017-07-09T03:32:48.648Z,4.17
2017-07-09T03:35:16.102Z,4.30
2017-07-09T03:37:43.667Z,3.93
2017-07-09T03:40:11.119Z,3.70
2017-07-09T03:42:38.680Z,3.80
2017-07-09T03:45:06.139Z,3.27
2017-07-09T03:47:33.594Z,3.70
2017-07-09T03:50:01.055Z,3.30
2017-07-09T03:52:28.514Z,3.37
2017-07-09T03:54:56.073Z,3.60
2017-07-09T03:57:23.514Z,3.73
2017-07-09T03:59:50.970Z,3.77
2017-07-09T04:02:18.420Z,4.20
2017-07-09T04:04:45.873Z,4.33
2017-07-09T04:07:13.322Z,4.10
2017-07-09T04:09:40.782Z,3.43
2017-07-09T04:12:08.237Z,3.73
2017-07-09T04:14:35.819Z,3.13
2017-07-09T04:17:03.275Z,4.03
2017-07-09T04:19:30.719Z,3.83
2017-07-09T04:21:58.178Z,3.53
2017-07-09T04:24:25.626Z,3.90
2017-07-09T04:26:53.086Z,4.30
2017-07-09T04:29:20.543Z,3.80
2017-07-09T07:32:38.300Z,2.43
2017-07-09T07:35:07.087Z,2.37
2017-07-09T07:37:34.671Z,2.50
2017-07-09T07:40:02.126Z,2.30
2017-07-09T07:42:29.583Z,3.10
2017-07-09T07:44:57.050Z,2.37
2017-07-09T07:47:24.602Z,2.30
2017-07-09T07:49:52.238Z,2.77
2017-07-09T07:52:19.705Z,2.63
2017-07-09T07:54:47.160Z,2.60
2017-07-09T07:57:14.618Z,1.93
2017-07-09T07:59:42.107Z,2.40
2017-07-09T08:02:10.330Z,2.50
2017-07-09T08:04:37.788Z,2.37
2017-07-09T08:07:05.248Z,2.80
2017-07-09T08:09:32.699Z,2.47
2017-07-09T08:12:00.157Z,2.13
2017-07-09T08:14:27.630Z,2.40
2017-07-09T08:16:55.182Z,2.97
2017-07-09T08:19:22.739Z,2.20
2017-07-09T08:21:50.194Z,2.37
2017-07-09T08:24:17.658Z,2.47
2017-07-09T08:26:45.099Z,3.20
2017-07-09T08:29:12.561Z,2.00
2017-07-09T08:31:43.343Z,2.20
2017-07-09T08:34:12.066Z,2.33
2017-07-09T08:36:39.518Z,2.30
2017-07-09T08:39:06.986Z,2.87
2017-07-09T08:41:34.434Z,2.27
2017-07-09T08:44:01.896Z,2.40
2017-07-09T08:46:29.356Z,2.20
2017-07-09T08:48:56.855Z,2.40
2017-07-09T08:51:25.064Z,2.70
2017-07-09T08:53:52.677Z,2.00
2017-07-09T08:56:20.200Z,2.00
2017-07-09T08:58:47.670Z,2.67
2017-07-09T09:01:15.118Z,2.60
2017-07-09T09:03:42.587Z,1.83
2017-07-09T09:06:10.170Z,2.00
2017-07-09T09:08:41.251Z,2.60
2017-07-09T09:11:08.710Z,2.30
2017-07-09T09:13:36.167Z,2.53
2017-07-09T09:16:03.627Z,2.90
2017-07-09T09:18:31.128Z,2.10
2017-07-09T09:20:58.588Z,2.27
2017-07-09T09:23:26.082Z,2.10
2017-07-09T09:25:54.427Z,2.50
2017-07-09T09:28:21.880Z,2.20
2017-07-09T09:30:50.098Z,2.03
2017-07-09T09:33:17.574Z,2.23
2017-07-09T09:35:45.031Z,2.10
2017-07-09T09:38:12.498Z,2.50
2017-07-09T09:40:40.067Z,2.43
2017-07-09T09:43:07.526Z,2.33
2017-07-09T09:45:34.990Z,2.40
2017-07-09T09:48:03.282Z,2.33
2017-07-09T09:50:30.802Z,3.37
2017-07-09T09:52:58.323Z,2.00
2017-07-09T09:55:25.812Z,2.20
2017-07-09T09:57:53.318Z,2.63
2017-07-09T10:00:21.538Z,2.17
2017-07-09T10:02:49.016Z,2.10
2017-07-09T10:05:16.482Z,2.27
2017-07-09T10:07:43.938Z,2.37
2017-07-09T10:10:11.399Z,2.53
2017-07-09T10:12:39.750Z,2.30
2017-07-09T10:15:07.326Z,2.23
2017-07-09T10:17:35.583Z,2.17
2017-07-09T10:20:03.049Z,2.20
2017-07-09T10:22:30.537Z,3.00
2017-07-09T10:24:58.031Z,2.13
2017-07-09T10:27:25.474Z,2.30
2017-07-09T10:29:52.967Z,2.20
2017-07-09T10:32:20.436Z,2.20
2017-07-09T10:34:47.881Z,2.03
2017-07-09T10:37:15.343Z,2.40
2017-07-09T10:39:42.798Z,1.77
2017-07-09T10:42:10.267Z,2.63
2017-07-09T10:44:38.349Z,2.10
2017-07-09T10:47:05.805Z,2.90
2017-07-09T10:49:33.257Z,2.20
2017-07-09T10:52:00.721Z,2.07
2017-07-09T10:54:28.968Z,2.10
2017-07-09T10:56:56.450Z,2.30
2017-07-09T10:59:24.694Z,2.43
2017-07-09T11:01:52.158Z,2.00
2017-07-09T11:04:19.615Z,2.67
2017-07-09T11:06:47.163Z,2.10
2017-07-09T11:09:14.640Z,2.60
2017-07-09T11:11:42.864Z,2.07
2017-07-09T11:14:10.318Z,2.70
2017-07-09T11:16:38.530Z,2.30
2017-07-09T11:19:05.996Z,2.23
2017-07-09T11:21:33.439Z,1.93
2017-07-09T11:24:00.986Z,1.90
2017-07-09T11:26:28.438Z,2.87
2017-07-09T11:28:57.508Z,2.70
2017-07-09T11:31:29.180Z,1.93
2017-07-09T11:33:56.783Z,2.30
2017-07-09T11:36:26.666Z,2.10
2017-07-09T11:38:55.904Z,1.93
2017-07-09T11:41:23.443Z,2.20
2017-07-09T11:43:51.831Z,2.20
2017-07-09T11:46:23.322Z,2.30
2017-07-09T11:48:54.021Z,2.00
2017-07-09T11:51:24.605Z,2.27
2017-07-09T11:53:55.550Z,2.10
2017-07-09T11:56:23.247Z,1.97
2017-07-09T11:58:51.618Z,2.50
2017-07-09T12:01:19.195Z,2.00
2017-07-09T12:03:46.741Z,2.43
2017-07-09T12:06:14.928Z,2.00
2017-07-09T12:08:42.474Z,2.43
2017-07-09T12:11:10.681Z,2.33
2017-07-09T12:13:38.185Z,2.00
2017-07-09T12:16:05.664Z,1.70
2017-07-09T12:18:33.197Z,2.80
2017-07-09T12:21:00.638Z,2.07
2017-07-09T12:23:28.105Z,2.10
2017-07-09T12:25:56.487Z,1.87
2017-07-09T12:28:25.362Z,1.73
2017-07-09T12:30:52.914Z,2.80
2017-07-09T12:33:20.371Z,3.10
2017-07-09T12:35:47.827Z,2.30
2017-07-09T12:38:15.452Z,2.23
2017-07-09T12:40:42.909Z,1.97
2017-07-09T12:43:10.364Z,2.30
2017-07-09T12:45:37.823Z,3.00
2017-07-09T12:48:05.379Z,2.53
2017-07-09T12:50:32.860Z,2.67
2017-07-09T12:53:00.310Z,2.43
2017-07-09T12:55:27.775Z,1.80
2017-07-09T12:57:55.262Z,2.13
2017-07-09T13:00:23.502Z,2.13
2017-07-09T13:02:50.974Z,3.07
2017-07-09T13:05:18.430Z,2.30
2017-07-09T13:07:45.891Z,2.20
2017-07-09T13:10:13.355Z,2.60
2017-07-09T13:12:40.811Z,1.83
2017-07-09T13:15:09.083Z,2.10
2017-07-09T13:17:38.132Z,2.40
2017-07-09T13:20:05.611Z,2.10
2017-07-09T13:22:33.067Z,2.43
2017-07-09T13:25:00.516Z,2.07
2017-07-09T13:27:27.995Z,2.10
2017-07-09T13:29:55.452Z,3.17
2017-07-09T13:32:22.901Z,3.07
2017-07-09T13:34:50.460Z,2.67
2017-07-09T13:37:17.915Z,2.47
2017-07-09T13:39:45.471Z,2.87
2017-07-09T13:42:15.760Z,2.73
2017-07-09T13:44:43.218Z,2.97
2017-07-09T13:47:10.683Z,2.60
2017-07-09T13:49:38.135Z,2.23
2017-07-09T13:52:05.625Z,1.90
2017-07-09T13:54:33.991Z,1.97
2017-07-09T13:57:02.227Z,1.93
2017-07-09T13:59:30.106Z,1.70
2017-07-09T14:01:57.599Z,2.77
2017-07-09T14:04:28.175Z,2.50
2017-07-09T14:06:58.458Z,2.47
2017-07-09T14:09:26.727Z,2.67
2017-07-09T14:11:55.709Z,1.80
2017-07-09T14:14:23.168Z,2.83
2017-07-09T14:16:50.633Z,2.57
2017-07-09T14:19:19.102Z,2.33
2017-07-09T14:21:46.668Z,1.97
2017-07-09T14:24:14.122Z,2.13
2017-07-09T14:26:41.585Z,2.20
2017-07-09T14:29:09.038Z,2.43
2017-07-09T14:31:36.524Z,3.00
2017-07-09T14:34:03.974Z,3.30
2017-07-09T14:36:31.423Z,2.57
2017-07-09T14:38:59.678Z,2.60
2017-07-09T14:41:27.128Z,2.07
2017-07-09T14:43:54.583Z,2.10
2017-07-09T14:46:22.034Z,2.00
2017-07-09T14:48:49.599Z,2.27
2017-07-09T14:51:17.047Z,2.30
2017-07-09T14:53:44.613Z,2.13
2017-07-09T14:56:12.179Z,1.97
2017-07-09T14:58:39.643Z,2.10
2017-07-09T15:01:08.713Z,1.93
2017-07-09T15:03:36.201Z,2.00
2017-07-09T15:06:03.646Z,1.97
2017-07-09T15:08:31.098Z,2.43
2017-07-09T15:10:58.575Z,1.90
2017-07-09T15:13:28.222Z,2.17
2017-07-09T15:15:56.595Z,2.10
2017-07-09T15:18:24.132Z,2.00
2017-07-09T15:20:51.607Z,1.90
2017-07-09T15:23:19.049Z,2.40
2017-07-09T15:25:46.624Z,2.00
2017-07-09T15:28:14.067Z,3.40
2017-07-09T15:30:42.238Z,2.90
2017-07-09T15:33:10.067Z,2.67
2017-07-09T15:35:37.667Z,2.70
2017-07-09T15:38:06.842Z,3.23
2017-07-09T15:40:35.448Z,3.23
2017-07-09T15:43:05.454Z,2.40
2017-07-09T15:45:35.254Z,2.43
2017-07-09T15:48:06.999Z,4.27
2017-07-09T15:50:35.227Z,2.77
2017-07-09T15:53:02.678Z,2.50
2017-07-09T15:55:34.423Z,2.43
2017-07-09T15:58:02.022Z,2.40
2017-07-09T16:00:29.576Z,2.60
2017-07-09T16:02:57.035Z,2.87
2017-07-09T16:05:24.486Z,2.30
2017-07-09T16:07:51.959Z,2.40
2017-07-09T16:10:20.179Z,2.53
2017-07-09T16:12:47.640Z,2.60
2017-07-09T16:15:15.130Z,2.70
2017-07-09T16:17:42.574Z,2.40
2017-07-09T16:20:10.037Z,2.50
2017-07-09T16:22:37.489Z,2.20
2017-07-09T16:25:10.427Z,1.80
2017-07-09T16:27:40.591Z,3.10
2017-07-09T16:30:08.070Z,2.73
2017-07-09T16:32:35.723Z,2.20
2017-07-09T16:35:03.182Z,2.67
2017-07-09T16:37:30.973Z,2.80
2017-07-09T16:39:58.462Z,3.47
2017-07-09T16:42:25.954Z,3.00
2017-07-09T16:44:53.411Z,4.43
2017-07-09T16:47:20.867Z,3.30
2017-07-09T16:49:48.327Z,3.97
2017-07-09T16:52:15.790Z,2.80
2017-07-09T16:54:44.016Z,3.40
2017-07-09T16:57:11.475Z,3.40
2017-07-09T16:59:38.927Z,2.57
2017-07-09T17:02:06.384Z,2.63
2017-07-09T17:04:33.873Z,2.67
2017-07-09T17:07:01.350Z,2.70
2017-07-09T17:09:29.611Z,1.90
2017-07-09T17:11:57.056Z,3.03
2017-07-09T17:14:25.381Z,3.10
2017-07-09T17:16:52.864Z,2.80
2017-07-09T17:19:20.910Z,2.40
2017-07-09T17:21:48.436Z,2.37
2017-07-09T17:24:16.019Z,2.20
2017-07-09T17:26:43.463Z,2.63
2017-07-09T17:29:11.686Z,3.57
2017-07-09T17:31:39.668Z,2.80
2017-07-09T17:34:07.142Z,2.60
2017-07-09T17:36:34.976Z,2.30
2017-07-09T17:39:02.420Z,3.77
2017-07-09T17:41:29.875Z,4.43
2017-07-09T17:43:57.334Z,2.90
2017-07-09T17:46:24.791Z,2.80
2017-07-09T17:48:52.247Z,3.50
2017-07-09T17:51:19.727Z,3.53
2017-07-09T17:53:47.247Z,3.00
2017-07-09T17:56:14.709Z,2.73
2017-07-09T17:58:42.150Z,2.80
2017-07-09T18:01:09.612Z,2.60
2017-07-09T18:03:37.114Z,3.03
2017-07-09T18:06:04.589Z,3.50
2017-07-09T18:08:32.855Z,3.40
2017-07-09T18:11:00.458Z,3.13
2017-07-09T18:13:27.925Z,2.80
2017-07-09T18:15:55.563Z,3.30
2017-07-09T18:18:23.023Z,2.90
2017-07-09T18:20:50.552Z,3.10
2017-07-09T18:23:18.006Z,3.20
2017-07-09T18:25:46.466Z,2.23
2017-07-09T18:28:13.926Z,3.17
2017-07-09T18:30:41.507Z,2.53
2017-07-09T18:33:08.978Z,2.87
2017-07-09T18:35:37.195Z,3.10
2017-07-09T18:38:05.639Z,2.83
2017-07-09T18:40:33.097Z,3.40
2017-07-09T18:43:00.549Z,2.20
2017-07-09T18:45:28.485Z,3.17
2017-07-09T18:47:57.149Z,2.67
2017-07-09T18:50:28.395Z,3.80
2017-07-09T18:52:55.916Z,3.20
2017-07-09T18:55:23.504Z,2.90
2017-07-09T18:57:51.019Z,3.37
2017-07-09T19:00:19.330Z,2.93
2017-07-09T19:02:46.817Z,2.93
2017-07-09T19:05:14.314Z,3.10
2017-07-09T19:07:41.839Z,3.63
2017-07-09T19:10:09.360Z,3.93
2017-07-09T19:12:36.935Z,4.10
2017-07-09T19:15:04.397Z,2.47
2017-07-09T19:17:33.949Z,3.00
2017-07-09T19:20:01.457Z,3.27
2017-07-09T19:22:28.922Z,3.30
2017-07-09T19:24:56.396Z,3.57
2017-07-09T19:27:23.940Z,3.00
2017-07-09T19:29:51.470Z,2.77
2017-07-09T19:32:19.147Z,3.00
2017-07-09T19:34:47.142Z,3.83
2017-07-09T19:37:14.865Z,2.70
2017-07-09T19:39:42.427Z,3.20
2017-07-09T19:42:11.138Z,3.30
2017-07-09T19:44:38.590Z,3.80
2017-07-09T19:47:06.046Z,2.80
2017-07-09T19:49:33.636Z,3.40
2017-07-09T19:52:02.652Z,2.80
2017-07-09T19:54:38.624Z,3.37
2017-07-09T19:57:06.131Z,2.70
2017-07-09T19:59:33.606Z,3.27
2017-07-09T20:02:01.063Z,1.90
2017-07-09T20:04:28.575Z,2.30
2017-07-09T20:06:56.050Z,3.57
2017-07-09T20:09:23.507Z,2.47
2017-07-09T20:11:51.735Z,2.80
2017-07-09T20:14:19.183Z,2.20
2017-07-09T20:16:46.643Z,2.43
2017-07-09T20:19:14.095Z,2.63
2017-07-09T20:21:41.560Z,2.90
2017-07-09T20:24:09.010Z,2.50
2017-07-09T20:26:36.483Z,2.97
2017-07-09T20:29:04.170Z,2.70
2017-07-09T20:31:31.624Z,3.33
2017-07-09T20:33:59.087Z,3.00
2017-07-09T20:36:26.535Z,2.30
2017-07-09T20:38:53.998Z,2.33
2017-07-09T20:41:21.548Z,3.17
2017-07-09T20:43:49.103Z,2.53
2017-07-09T20:46:19.498Z,2.03
2017-07-09T20:48:46.982Z,2.43
2017-07-09T20:51:15.129Z,2.63
2017-07-09T20:53:42.611Z,3.37
2017-07-09T20:56:10.071Z,3.17
2017-07-09T20:58:37.522Z,2.80
2017-07-09T21:01:06.479Z,3.30
2017-07-09T21:03:33.933Z,2.90
2017-07-09T21:06:01.529Z,2.10
2017-07-09T21:08:28.992Z,2.43
2017-07-09T21:10:56.446Z,3.67
2017-07-09T21:13:24.694Z,2.80
2017-07-09T21:15:52.155Z,2.83
2017-07-09T21:18:19.611Z,3.83
2017-07-09T21:20:47.630Z,3.20
2017-07-09T21:23:15.859Z,3.93
2017-07-09T21:25:44.142Z,2.73
2017-07-09T21:28:11.603Z,3.57
2017-07-09T21:30:39.055Z,3.13
2017-07-09T21:33:06.615Z,3.30
2017-07-09T21:35:34.178Z,3.30
2017-07-09T21:38:01.649Z,3.27
2017-07-09T21:40:29.102Z,3.60
2017-07-09T21:42:56.562Z,3.30
2017-07-09T21:45:24.104Z,3.13
2017-07-09T21:47:51.561Z,3.97
2017-07-09T21:50:19.022Z,4.00
2017-07-09T21:52:46.503Z,2.93
2017-07-09T21:55:14.719Z,3.20
2017-07-09T21:57:42.174Z,3.70
2017-07-09T22:02:35.914Z,3.00
2017-07-09T22:05:04.139Z,2.70
2017-07-09T22:07:31.618Z,3.60
2017-07-09T22:10:00.644Z,2.60
2017-07-09T22:12:28.085Z,3.47
2017-07-09T22:14:56.314Z,3.40
2017-07-09T22:17:27.753Z,3.07
2017-07-09T22:19:56.739Z,3.47
2017-07-09T22:22:24.950Z,4.30
2017-07-09T22:24:52.498Z,2.70
2017-07-09T22:27:19.974Z,3.00
2017-07-09T22:29:47.426Z,3.27
2017-07-09T22:32:14.881Z,3.03
2017-07-09T22:34:42.482Z,3.80
2017-07-09T22:37:09.999Z,4.53
2017-07-09T22:39:37.451Z,5.07
2017-07-09T22:42:04.998Z,3.73
2017-07-09T22:44:32.967Z,4.20
2017-07-09T22:47:00.417Z,3.60
2017-07-09T22:49:27.912Z,4.43
2017-07-09T22:51:56.150Z,3.60
2017-07-09T22:54:23.603Z,5.00
2017-07-09T22:56:51.898Z,3.87
2017-07-09T22:59:19.357Z,4.80
2017-07-09T23:01:46.825Z,4.70
2017-07-09T23:04:14.311Z,4.30
2017-07-09T23:06:42.650Z,4.33
2017-07-09T23:09:10.622Z,3.20
2017-07-09T23:11:39.668Z,3.00
2017-07-09T23:14:07.264Z,3.90
2017-07-09T23:16:34.810Z,4.20
2017-07-09T23:19:02.278Z,3.80
2017-07-09T23:21:29.740Z,3.53
2017-07-09T23:23:57.295Z,4.23
2017-07-09T23:26:24.761Z,4.00
2017-07-09T23:28:53.134Z,4.50
2017-07-09T23:31:20.594Z,4.53
2017-07-09T23:33:48.058Z,4.20
2017-07-09T23:36:16.284Z,3.90
2017-07-09T23:38:43.760Z,4.90
2017-07-09T23:41:11.224Z,4.50
2017-07-09T23:43:39.707Z,4.07
2017-07-09T23:46:07.171Z,4.00
2017-07-09T23:48:34.621Z,3.90
2017-07-09T23:51:02.086Z,3.83
2017-07-09T23:53:29.526Z,3.60
2017-07-09T23:55:56.995Z,3.50
2017-07-09T23:58:25.215Z,3.67
